Welberg, Netherlands
Current Conditions -  °F | °C
As of 10:44 AM on Friday 28 Nov 2014 (Local Time) from EHWO Reporting Station
Haze Haze  
Wind Chill: 41°   Ceiling: Unl
Heat Index: 46°   Visibility: 5mi
Dew Point: 43°   Wind: 10mph
Humidity: 87%   Direction: 90°E
Pressure: 29.71"   Gusts: NA
Location:  51.58°N, 4.33°E
Report Text: EHWO 280944Z AUTO 09009KT 8000 BR BKN075 OVC082 08/06 Q1006 BLU 09009KT 8000 NSC
Loading
Personal Weather Stations






























Interactive Weather Map New forecast layout! Learn more

10-Day Weather Forecast

Advertisements
Track Severe Weather on mobile